Time;durP1;ratioP1;P1;durP2;ratioP2;P2;SDS_P1;SDS_P2;PMS_P1;PMS_P2;Temp;Humidity;BMP_temperature;BMP_pressure;BME280_temperature;BME280_humidity;BME280_pressure;Samples;Min_cycle;Max_cycle;Signal;HPM_P1;HPM_P2
2022/03/13 00:01:09;;;;;;;30.05;18.15;;;5.50;99.90;;;;;;5092714;28;20043;-72
2022/03/13 00:03:35;;;;;;;30.05;16.20;;;5.40;99.90;;;;;;5094252;28;20048;-72
2022/03/13 00:06:01;;;;;;;29.63;17.45;;;5.30;99.90;;;;;;5092798;28;20032;-72
2022/03/13 00:08:31;;;;;;;31.58;18.50;;;5.20;99.90;;;;;;5094143;28;20042;-71
2022/03/13 00:11:01;;;;;;;31.10;17.90;;;5.10;99.90;;;;;;5092926;28;20020;-71
2022/03/13 00:13:31;;;;;;;31.30;18.70;;;5.10;99.90;;;;;;5094003;28;20478;-72
2022/03/13 00:15:58;;;;;;;30.65;18.45;;;5.00;99.90;;;;;;5094004;28;20044;-71
2022/03/13 00:18:24;;;;;;;35.47;20.10;;;5.00;99.90;;;;;;5094000;28;20482;-72
2022/03/13 00:20:51;;;;;;;31.77;18.92;;;4.90;99.90;;;;;;5093971;28;20031;-72
2022/03/13 00:23:17;;;;;;;30.15;18.13;;;4.90;99.90;;;;;;5092802;28;20036;-72
2022/03/13 00:25:42;;;;;;;33.28;19.23;;;4.90;99.90;;;;;;5093761;28;20466;-72
2022/03/13 00:28:09;;;;;;;35.25;19.75;;;4.90;99.90;;;;;;5093715;28;20017;-72
2022/03/13 00:30:35;;;;;;;40.50;20.90;;;4.90;99.90;;;;;;5092596;28;20389;-72
2022/03/13 00:33:02;;;;;;;31.15;18.50;;;4.90;99.90;;;;;;5075553;28;20024;-72
2022/03/13 00:35:28;;;;;;;29.05;17.23;;;4.90;99.90;;;;;;5092348;28;20020;-72
2022/03/13 00:37:55;;;;;;;29.13;17.08;;;5.00;99.90;;;;;;5093727;28;20052;-72
2022/03/13 00:40:20;;;;;;;32.92;19.42;;;5.10;99.90;;;;;;5093590;28;20028;-72
2022/03/13 00:42:46;;;;;;;27.05;16.67;;;5.10;99.90;;;;;;5092345;28;20059;-72
2022/03/13 00:45:13;;;;;;;29.75;16.48;;;5.20;99.90;;;;;;5092265;28;20024;-72
2022/03/13 00:47:39;;;;;;;27.92;16.17;;;5.20;99.90;;;;;;5092362;28;20016;-72
2022/03/13 00:50:05;;;;;;;26.90;16.85;;;5.20;99.90;;;;;;5092319;28;20489;-72
2022/03/13 00:52:31;;;;;;;28.88;16.77;;;5.20;99.90;;;;;;5092274;28;20027;-72
2022/03/13 00:54:56;;;;;;;29.15;17.45;;;5.20;99.90;;;;;;5075245;28;20098;-72
2022/03/13 00:57:22;;;;;;;26.85;17.15;;;5.20;99.90;;;;;;5092073;28;20106;-72
2022/03/13 00:59:47;;;;;;;26.98;16.45;;;5.20;99.90;;;;;;5093322;28;20106;-72
2022/03/13 01:02:14;;;;;;;28.42;17.02;;;5.20;99.90;;;;;;5093044;28;20044;-72
2022/03/13 01:04:40;;;;;;;27.42;16.98;;;5.10;99.90;;;;;;5093310;28;20020;-72
2022/03/13 01:07:06;;;;;;;24.55;16.58;;;4.90;99.90;;;;;;5092100;28;20390;-72
2022/03/13 01:09:32;;;;;;;27.42;16.70;;;4.80;99.90;;;;;;5093232;28;20031;-72
2022/03/13 01:11:57;;;;;;;25.05;16.10;;;4.70;99.90;;;;;;5092125;28;20024;-72
2022/03/13 01:14:23;;;;;;;26.73;16.35;;;4.60;99.90;;;;;;5093247;28;20024;-72
2022/03/13 01:17:06;;;;;;;28.65;17.02;;;4.50;99.90;;;;;;5092026;28;20070;-72
2022/03/13 01:19:31;;;;;;;26.83;16.47;;;4.50;99.90;;;;;;5092305;28;20078;-72
2022/03/13 01:21:57;;;;;;;28.30;17.17;;;4.40;99.90;;;;;;5093106;28;20282;-71
2022/03/13 01:24:31;;;;;;;32.67;18.05;;;4.40;99.90;;;;;;5091869;28;20031;-71
2022/03/13 01:26:57;;;;;;;;;;;4.30;99.90;;;;;;5093606;28;20024;-71
2022/03/13 01:29:23;;;;;;;30.75;16.67;;;4.40;99.90;;;;;;5093073;28;19911;-71
2022/03/13 01:31:49;;;;;;;30.33;17.63;;;4.40;99.90;;;;;;5091881;28;20016;-72
2022/03/13 01:37:35;;;;;;;31.65;18.60;;;4.40;99.90;;;;;;5111179;27;20804;-71
2022/03/13 01:40:05;;;;;;;31.70;17.55;;;4.40;99.90;;;;;;5110094;28;20023;-71
2022/03/13 01:42:30;;;;;;;31.70;18.67;;;4.40;99.90;;;;;;5111042;28;20024;-71
2022/03/13 01:44:56;;;;;;;29.92;17.55;;;4.50;99.90;;;;;;5110956;28;20024;-71
2022/03/13 01:47:23;;;;;;;31.92;17.95;;;4.40;99.90;;;;;;5111059;28;20388;-71
2022/03/13 01:49:49;;;;;;;33.95;18.38;;;4.50;99.90;;;;;;5109718;28;20020;-71
2022/03/13 01:52:16;;;;;;;33.05;18.27;;;4.50;99.90;;;;;;5109556;28;20119;-72
2022/03/13 01:54:43;;;;;;;29.75;17.85;;;4.40;99.90;;;;;;5109634;28;20069;-71
2022/03/13 01:57:09;;;;;;;33.20;18.25;;;;;;;;;;5110802;28;20031;-71
2022/03/13 01:59:35;;;;;;;32.58;19.02;;;4.30;99.90;;;;;;5110752;28;20389;-72
2022/03/13 02:02:02;;;;;;;38.50;19.13;;;4.20;99.90;;;;;;5109381;28;20028;-71
2022/03/13 02:04:30;;;;;;;33.45;18.42;;;4.30;99.90;;;;;;5092486;28;20024;-72
2022/03/13 02:06:58;;;;;;;33.85;19.42;;;4.30;99.90;;;;;;5110544;28;20101;-72
2022/03/13 02:09:26;;;;;;;32.70;18.60;;;4.20;99.90;;;;;;5110546;28;20024;-72
2022/03/13 02:11:52;;;;;;;33.17;19.02;;;4.10;99.90;;;;;;5110454;28;20028;-72
2022/03/13 02:14:21;;;;;;;34.60;20.25;;;4.20;99.90;;;;;;5110425;28;20019;-72
2022/03/13 02:16:47;;;;;;;31.00;18.25;;;4.10;99.90;;;;;;5109139;28;20513;-72
2022/03/13 02:19:14;;;;;;;32.95;17.83;;;4.10;99.90;;;;;;5110321;28;20020;-72
2022/03/13 02:21:44;;;;;;;30.10;17.38;;;4.10;99.90;;;;;;5109119;28;20564;-72
2022/03/13 02:24:14;;;;;;;28.65;16.75;;;4.10;99.90;;;;;;5110237;28;20031;-72
2022/03/13 02:26:42;;;;;;;29.90;18.25;;;4.10;99.90;;;;;;5110201;28;20027;-72
2022/03/13 02:29:13;;;;;;;26.85;16.77;;;4.10;99.90;;;;;;5110191;28;20413;-72
2022/03/13 02:31:40;;;;;;;30.27;17.20;;;4.10;99.90;;;;;;5108811;28;20039;-72
2022/03/13 02:34:13;;;;;;;31.38;16.98;;;4.00;99.90;;;;;;5110138;28;20590;-72
2022/03/13 02:36:44;;;;;;;;;;;4.00;99.90;;;;;;5109003;28;20040;-72
2022/03/13 02:39:11;;;;;;;26.27;16.10;;;4.10;99.90;;;;;;5109984;28;19910;-72
2022/03/13 02:41:40;;;;;;;26.08;16.25;;;4.10;99.90;;;;;;5109980;28;20020;-72
2022/03/13 02:44:07;;;;;;;26.85;16.63;;;4.10;99.90;;;;;;5108574;28;20157;-72
2022/03/13 02:49:28;;;;;;;29.00;17.27;;;4.00;99.90;;;;;;5070628;28;20349;-72
2022/03/13 02:51:56;;;;;;;28.23;16.50;;;3.90;99.90;;;;;;5070607;28;20103;-72
2022/03/13 02:54:22;;;;;;;29.15;16.85;;;3.80;99.90;;;;;;5070508;28;20029;-72
2022/03/13 02:56:49;;;;;;;36.58;19.10;;;3.70;99.90;;;;;;5070397;28;20108;-72
2022/03/13 02:59:15;;;;;;;31.17;19.42;;;3.70;99.90;;;;;;5069051;28;20021;-72
2022/03/13 03:01:41;;;;;;;33.88;19.02;;;3.70;99.90;;;;;;5052439;28;20112;-71
2022/03/13 03:04:07;;;;;;;32.40;19.00;;;3.60;99.90;;;;;;5070360;28;20021;-71
2022/03/13 03:06:34;;;;;;;30.23;19.35;;;3.60;99.90;;;;;;5070305;28;20043;-71
2022/03/13 03:09:02;;;;;;;33.65;18.83;;;3.50;99.90;;;;;;5052445;28;20056;-71
2022/03/13 03:11:28;;;;;;;30.92;17.98;;;3.40;99.90;;;;;;5070259;28;20025;-71
2022/03/13 03:13:53;;;;;;;29.55;18.42;;;3.40;99.90;;;;;;5070219;28;20047;-71
2022/03/13 03:16:19;;;;;;;38.47;20.92;;;3.30;99.90;;;;;;5068884;28;20021;-71
2022/03/13 03:18:46;;;;;;;34.97;19.38;;;3.10;99.90;;;;;;5070025;28;20024;-72
2022/03/13 03:21:13;;;;;;;32.33;19.35;;;3.00;99.90;;;;;;5052155;28;20070;-72
2022/03/13 03:23:38;;;;;;;32.75;19.17;;;3.00;99.90;;;;;;5052157;28;20047;-72
2022/03/13 03:26:06;;;;;;;34.55;18.80;;;3.00;99.90;;;;;;5068675;28;20479;-72
2022/03/13 03:28:31;;;;;;;30.67;18.02;;;3.00;99.90;;;;;;5052075;28;20029;-72
2022/03/13 03:30:59;;;;;;;30.45;17.85;;;3.00;99.90;;;;;;5068712;28;20078;-72
2022/03/13 03:33:25;;;;;;;31.83;19.00;;;3.10;99.90;;;;;;5069737;28;20467;-72
2022/03/13 03:35:50;;;;;;;37.88;19.75;;;3.10;99.90;;;;;;5068446;28;20051;-72
2022/03/13 03:38:16;;;;;;;32.60;20.08;;;3.20;99.90;;;;;;5069637;28;20025;-72
2022/03/13 03:40:42;;;;;;;37.88;20.15;;;3.20;99.90;;;;;;5069545;28;20115;-72
2022/03/13 03:43:07;;;;;;;36.55;20.17;;;3.20;99.90;;;;;;5069437;28;20116;-72
2022/03/13 03:45:33;;;;;;;37.30;19.92;;;3.40;99.90;;;;;;5068335;28;20368;-72
2022/03/13 03:47:59;;;;;;;36.97;20.35;;;3.50;99.90;;;;;;5069046;28;20041;-72
2022/03/13 03:50:25;;;;;;;34.97;19.15;;;3.60;99.90;;;;;;5068084;28;20474;-72
2022/03/13 03:52:55;;;;;;;33.42;19.35;;;3.60;99.90;;;;;;5068127;28;20024;-72
2022/03/13 03:55:21;;;;;;;32.88;18.98;;;3.60;99.90;;;;;;5068058;28;20017;-72
2022/03/13 03:57:46;;;;;;;34.00;18.92;;;3.60;99.90;;;;;;5069141;28;20115;-72
2022/03/13 04:00:12;;;;;;;31.95;18.30;;;3.60;99.90;;;;;;5059121;28;20029;-72
2022/03/13 04:02:39;;;;;;;35.05;19.42;;;3.40;99.90;;;;;;5054763;28;20021;-72
2022/03/13 04:05:06;;;;;;;33.08;19.17;;;3.30;99.90;;;;;;5055885;28;20434;-72
2022/03/13 04:07:32;;;;;;;32.05;19.27;;;3.20;99.90;;;;;;5054600;28;20021;-71
2022/03/13 04:09:58;;;;;;;35.50;18.90;;;3.10;99.90;;;;;;5055851;28;20017;-72
2022/03/13 04:12:25;;;;;;;31.83;19.35;;;3.00;99.90;;;;;;5055826;28;20025;-73
2022/03/13 04:14:52;;;;;;;34.10;19.42;;;2.90;99.90;;;;;;5055649;28;20418;-72
2022/03/13 04:17:17;;;;;;;34.53;19.70;;;2.80;99.90;;;;;;5055585;28;20025;-72
2022/03/13 04:19:43;;;;;;;34.15;19.88;;;2.60;99.90;;;;;;5055567;28;20448;-72
2022/03/13 04:22:08;;;;;;;32.65;19.30;;;2.50;99.90;;;;;;5054439;28;20403;-72
2022/03/13 04:24:34;;;;;;;30.67;18.90;;;2.50;99.90;;;;;;5054311;28;20065;-72
2022/03/13 04:26:59;;;;;;;33.75;19.35;;;2.50;99.90;;;;;;5054296;28;20051;-72
2022/03/13 04:29:25;;;;;;;32.65;19.52;;;2.50;99.90;;;;;;5054174;28;20088;-72
2022/03/13 04:31:53;;;;;;;33.97;18.73;;;2.50;99.90;;;;;;5054201;28;20032;-72
2022/03/13 04:34:19;;;;;;;32.92;20.00;;;2.60;99.90;;;;;;5055346;28;20017;-72
2022/03/13 04:36:45;;;;;;;34.60;19.63;;;2.60;99.90;;;;;;5055276;28;20025;-72
2022/03/13 04:39:11;;;;;;;36.13;20.60;;;2.60;99.90;;;;;;5055486;28;20106;-72
2022/03/13 04:41:38;;;;;;;33.72;19.45;;;2.60;99.90;;;;;;5055235;28;20403;-72
2022/03/13 04:44:05;;;;;;;35.88;18.88;;;2.50;99.90;;;;;;5055180;28;20029;-72
2022/03/13 04:46:32;;;;;;;31.95;18.75;;;2.50;99.90;;;;;;5037608;28;20025;-72
2022/03/13 04:48:57;;;;;;;35.00;18.80;;;2.40;99.90;;;;;;5053723;28;20048;-72
2022/03/13 04:51:24;;;;;;;39.25;21.17;;;2.40;99.90;;;;;;5053807;28;20479;-72
2022/03/13 04:53:50;;;;;;;31.73;19.05;;;2.30;99.90;;;;;;5054922;28;20028;-72
2022/03/13 04:56:15;;;;;;;32.30;18.20;;;2.20;99.90;;;;;;5054943;28;20036;-72
2022/03/13 04:58:41;;;;;;;31.40;18.63;;;2.30;99.90;;;;;;5054864;28;20449;-72
2022/03/13 05:01:06;;;;;;;34.85;20.08;;;2.20;99.90;;;;;;5054852;28;20463;-72
2022/03/13 05:03:33;;;;;;;28.70;17.77;;;2.20;99.90;;;;;;5054820;28;20422;-72
2022/03/13 05:06:05;;;;;;;33.20;19.23;;;2.20;99.90;;;;;;5054722;28;20116;-72
2022/03/13 05:08:32;;;;;;;32.63;18.23;;;2.20;99.90;;;;;;5054688;28;20025;-72
2022/03/13 05:10:59;;;;;;;30.67;18.15;;;2.30;99.90;;;;;;5053703;28;20017;-72
2022/03/13 05:13:25;;;;;;;31.00;19.05;;;2.40;99.90;;;;;;5053486;28;20021;-72
2022/03/13 05:15:52;;;;;;;31.55;18.40;;;2.30;99.90;;;;;;5054523;28;20020;-72
2022/03/13 05:18:18;;;;;;;29.75;17.45;;;2.30;99.90;;;;;;5053323;28;20031;-72
2022/03/13 05:20:43;;;;;;;34.40;18.27;;;2.20;99.90;;;;;;5054466;28;20036;-72
2022/03/13 05:23:09;;;;;;;33.70;19.20;;;2.10;99.90;;;;;;5054394;28;20031;-72
2022/03/13 05:25:36;;;;;;;29.17;17.55;;;2.10;99.90;;;;;;5054389;28;20020;-72
2022/03/13 05:28:03;;;;;;;32.80;19.20;;;2.00;99.90;;;;;;5054176;28;20063;-72
2022/03/13 05:30:29;;;;;;;33.88;19.20;;;1.90;99.90;;;;;;5054231;28;20021;-72
2022/03/13 05:32:55;;;;;;;30.95;18.20;;;1.90;99.90;;;;;;5054176;28;20108;-72
2022/03/13 05:35:21;;;;;;;34.67;19.60;;;1.90;99.90;;;;;;5054139;28;20021;-72
2022/03/13 05:37:47;;;;;;;36.78;19.25;;;1.80;99.90;;;;;;5054136;28;20478;-72
2022/03/13 05:40:15;;;;;;;35.70;18.77;;;1.80;99.90;;;;;;5053998;28;20025;-71
2022/03/13 05:42:45;;;;;;;32.42;18.50;;;1.90;99.90;;;;;;5052684;28;20025;-72
2022/03/13 05:45:12;;;;;;;33.15;19.00;;;1.80;99.90;;;;;;5053903;28;20024;-72
2022/03/13 05:47:55;;;;;;;31.48;17.95;;;1.80;99.90;;;;;;5035808;28;20098;-72
2022/03/13 05:50:23;;;;;;;31.20;17.35;;;1.80;99.90;;;;;;5052674;28;20468;-71
2022/03/13 05:52:49;;;;;;;33.08;17.95;;;1.80;99.90;;;;;;5052573;28;20017;-71
2022/03/13 05:55:17;;;;;;;34.88;18.63;;;1.80;99.90;;;;;;5052667;28;20508;-72
2022/03/13 05:57:43;;;;;;;33.13;18.40;;;1.90;99.90;;;;;;5054082;28;20024;-72
2022/03/13 06:00:11;;;;;;;34.65;18.67;;;2.00;99.90;;;;;;5052485;28;20036;-72
2022/03/13 06:02:38;;;;;;;32.65;17.48;;;2.10;99.90;;;;;;5052380;28;20033;-72
2022/03/13 06:05:04;;;;;;;27.27;16.80;;;2.30;99.90;;;;;;5052472;28;20027;-73
2022/03/13 06:07:30;;;;;;;30.52;16.88;;;2.50;99.90;;;;;;5052335;28;20037;-73
2022/03/13 06:09:56;;;;;;;30.48;16.67;;;2.70;99.90;;;;;;5053629;28;20025;-72
2022/03/13 06:12:22;;;;;;;32.20;17.13;;;2.90;99.90;;;;;;5052200;28;20027;-72
2022/03/13 06:14:47;;;;;;;28.70;16.15;;;3.10;99.90;;;;;;5053449;28;20021;-72
2022/03/13 06:17:13;;;;;;;28.52;16.77;;;3.40;99.90;;;;;;5053413;28;20057;-73
2022/03/13 06:19:42;;;;;;;27.48;15.75;;;3.70;99.90;;;;;;5053468;28;20025;-72
2022/03/13 06:22:09;;;;;;;27.67;16.25;;;3.90;99.90;;;;;;5052023;28;20017;-72
2022/03/13 06:24:34;;;;;;;31.88;17.30;;;4.00;99.90;;;;;;5053328;28;20064;-73
2022/03/13 06:27:00;;;;;;;26.92;16.35;;;4.10;99.90;;;;;;5035552;28;20036;-72
2022/03/13 06:29:26;;;;;;;29.52;16.48;;;4.60;99.90;;;;;;5035411;28;20029;-73
2022/03/13 06:31:52;;;;;;;25.77;16.10;;;5.00;99.90;;;;;;5052065;28;20490;-72
2022/03/13 06:34:18;;;;;;;32.28;15.98;;;5.50;99.90;;;;;;5053182;28;20501;-72
2022/03/13 06:36:44;;;;;;;27.65;15.52;;;5.90;99.90;;;;;;5052013;28;20021;-72
2022/03/13 06:39:10;;;;;;;23.00;14.68;;;6.50;99.90;;;;;;5053178;28;20025;-72
2022/03/13 06:41:36;;;;;;;24.92;15.07;;;7.50;99.90;;;;;;5053201;28;20391;-72
2022/03/13 06:44:02;;;;;;;26.38;15.13;;;8.60;99.90;;;;;;5051932;28;20025;-72
2022/03/13 06:46:27;;;;;;;22.60;14.43;;;9.70;99.90;;;;;;5053078;28;20044;-73
2022/03/13 06:48:53;;;;;;;24.30;14.85;;;10.40;96.60;;;;;;5052827;28;20041;-73
2022/03/13 06:51:20;;;;;;;24.30;15.05;;;11.00;93.70;;;;;;5051790;28;20522;-72
2022/03/13 06:53:45;;;;;;;19.23;13.88;;;11.30;90.10;;;;;;5053023;28;20037;-72
2022/03/13 06:56:11;;;;;;;21.52;13.73;;;11.70;86.10;;;;;;5053029;28;20056;-73
2022/03/13 06:58:37;;;;;;;22.88;13.90;;;12.00;84.10;;;;;;5051902;28;20680;-72
2022/03/13 07:01:03;;;;;;;19.70;14.02;;;12.20;77.00;;;;;;5052978;28;20028;-73
2022/03/13 07:03:28;;;;;;;21.08;13.35;;;12.60;74.80;;;;;;5052944;28;20394;-73
2022/03/13 07:05:54;;;;;;;19.98;13.93;;;12.50;76.10;;;;;;5051747;28;20036;-72
2022/03/13 07:08:19;;;;;;;22.40;14.38;;;13.00;70.80;;;;;;5052813;28;20036;-73
2022/03/13 07:10:45;;;;;;;19.63;14.70;;;12.70;66.00;;;;;;5051664;28;20434;-73
2022/03/13 07:13:11;;;;;;;19.65;13.57;;;12.30;67.90;;;;;;5052856;28;20392;-73
2022/03/13 07:15:37;;;;;;;21.25;13.75;;;12.60;69.10;;;;;;5051675;28;20056;-72
2022/03/13 07:18:02;;;;;;;18.52;12.27;;;13.30;69.70;;;;;;5051588;28;20028;-72
2022/03/13 07:20:28;;;;;;;18.40;13.38;;;13.50;64.40;;;;;;5051680;28;20035;-73
2022/03/13 07:22:54;;;;;;;20.83;13.35;;;13.50;64.20;;;;;;5035264;28;20025;-73
2022/03/13 07:25:19;;;;;;;17.38;12.65;;;13.40;63.50;;;;;;5051551;28;20021;-73
2022/03/13 07:27:45;;;;;;;21.90;13.20;;;13.70;61.30;;;;;;5052617;28;20029;-73
2022/03/13 07:30:12;;;;;;;17.80;12.98;;;13.80;61.80;;;;;;5052684;28;20092;-72
2022/03/13 07:32:40;;;;;;;16.88;12.63;;;14.10;59.70;;;;;;5052643;28;20013;-73
2022/03/13 07:35:06;;;;;;;16.63;12.38;;;14.20;59.80;;;;;;5054568;28;20059;-72
2022/03/13 07:37:32;;;;;;;20.35;13.10;;;14.30;57.80;;;;;;5056499;28;20452;-73
2022/03/13 07:39:58;;;;;;;18.02;12.68;;;14.60;57.00;;;;;;5038621;28;20060;-73
2022/03/13 07:42:24;;;;;;;20.05;12.45;;;14.90;55.40;;;;;;5055149;28;20029;-72
2022/03/13 07:44:49;;;;;;;16.20;11.70;;;15.00;55.00;;;;;;5055065;28;20040;-72
2022/03/13 07:47:15;;;;;;;16.75;11.80;;;15.40;53.90;;;;;;5054656;28;20422;-72
2022/03/13 07:49:40;;;;;;;16.95;12.07;;;16.00;51.90;;;;;;5056187;28;20033;-73
2022/03/13 07:52:07;;;;;;;15.25;10.90;;;16.50;50.90;;;;;;5056102;28;20036;-72
2022/03/13 07:54:32;;;;;;;16.63;11.43;;;16.80;48.80;;;;;;5054817;28;20390;-72
2022/03/13 07:56:58;;;;;;;17.40;11.45;;;16.80;47.40;;;;;;5056036;28;20104;-73
2022/03/13 07:59:23;;;;;;;18.73;11.50;;;16.80;46.00;;;;;;5054722;28;20029;-72
2022/03/13 08:01:50;;;;;;;14.95;10.63;;;16.30;44.10;;;;;;5054653;28;20387;-72
2022/03/13 08:04:16;;;;;;;15.65;12.07;;;16.40;44.50;;;;;;5054755;28;20017;-72
2022/03/13 08:06:42;;;;;;;14.18;10.50;;;16.90;44.80;;;;;;5038083;28;20025;-72
2022/03/13 08:09:08;;;;;;;15.82;11.13;;;17.00;45.70;;;;;;5055816;28;20033;-72
2022/03/13 08:11:34;;;;;;;17.02;11.13;;;17.10;44.40;;;;;;5055797;28;20023;-72
2022/03/13 08:14:02;;;;;;;15.18;10.55;;;17.40;44.20;;;;;;5055749;28;20429;-73
2022/03/13 08:16:28;;;;;;;14.88;11.77;;;16.40;45.10;;;;;;5055797;28;20120;-73
2022/03/13 08:18:54;;;;;;;15.35;10.68;;;17.30;45.10;;;;;;5055642;28;20096;-73
2022/03/13 08:21:19;;;;;;;14.20;10.30;;;17.50;42.30;;;;;;5037780;28;20157;-73
2022/03/13 08:23:45;;;;;;;15.55;10.73;;;17.80;43.30;;;;;;5055513;28;20025;-73
2022/03/13 08:26:11;;;;;;;13.38;9.98;;;17.50;42.00;;;;;;5054223;28;20025;-72
2022/03/13 08:28:38;;;;;;;14.85;10.82;;;17.50;41.10;;;;;;5055352;28;20032;-72
2022/03/13 08:31:04;;;;;;;14.35;11.35;;;17.70;41.40;;;;;;5054267;28;20025;-72
2022/03/13 08:33:29;;;;;;;13.10;10.00;;;17.70;42.00;;;;;;5055454;28;20028;-73
2022/03/13 08:35:55;;;;;;;14.93;10.70;;;17.00;41.40;;;;;;5055320;28;20025;-73
2022/03/13 08:38:20;;;;;;;16.33;10.23;;;16.90;40.90;;;;;;5055213;28;20057;-73
2022/03/13 08:40:46;;;;;;;15.52;10.10;;;17.00;40.20;;;;;;5053994;28;20499;-73
2022/03/13 08:43:12;;;;;;;13.95;8.90;;;17.30;41.40;;;;;;5053891;28;20024;-73
2022/03/13 08:45:38;;;;;;;11.85;8.73;;;16.60;37.70;;;;;;5055061;28;20029;-72
2022/03/13 08:48:04;;;;;;;15.18;9.65;;;16.30;37.50;;;;;;5054922;28;20048;-72
2022/03/13 08:50:29;;;;;;;13.52;9.15;;;16.70;38.90;;;;;;5055145;28;20016;-73
2022/03/13 08:52:56;;;;;;;11.10;9.13;;;17.40;37.30;;;;;;5054982;28;20471;-73
2022/03/13 08:55:22;;;;;;;13.55;9.02;;;17.40;37.10;;;;;;5053714;28;20025;-73
2022/03/13 08:57:48;;;;;;;12.73;8.77;;;16.60;36.10;;;;;;5053723;28;20052;-73
2022/03/13 09:00:16;;;;;;;13.38;9.52;;;16.10;38.30;;;;;;5054873;28;20025;-73
2022/03/13 09:02:43;;;;;;;13.90;9.40;;;16.80;38.30;;;;;;5053619;28;20029;-73
2022/03/13 09:05:09;;;;;;;14.25;10.18;;;16.60;38.20;;;;;;5053499;28;20116;-73
2022/03/13 09:07:35;;;;;;;13.65;9.52;;;16.80;38.50;;;;;;5053486;28;20104;-73
2022/03/13 09:10:02;;;;;;;12.48;10.00;;;17.20;38.50;;;;;;5054752;28;20159;-73
2022/03/13 09:12:31;;;;;;;13.70;9.80;;;17.10;37.90;;;;;;5053621;28;20021;-73
2022/03/13 09:14:57;;;;;;;12.32;10.05;;;17.10;39.40;;;;;;5054558;28;20025;-73
2022/03/13 09:17:22;;;;;;;14.18;9.95;;;17.10;38.80;;;;;;5053372;28;20395;-73
2022/03/13 09:19:48;;;;;;;13.40;9.55;;;17.40;39.30;;;;;;5054512;28;20029;-73
2022/03/13 09:22:17;;;;;;;14.70;10.90;;;17.40;39.90;;;;;;5054394;28;20029;-73
2022/03/13 09:24:44;;;;;;;15.20;10.27;;;17.10;39.60;;;;;;5036947;28;20025;-73
2022/03/13 09:27:09;;;;;;;13.75;10.38;;;16.50;40.90;;;;;;5054491;28;20017;-73
2022/03/13 09:29:35;;;;;;;15.30;10.95;;;16.20;41.10;;;;;;5036449;28;20021;-73
2022/03/13 09:32:01;;;;;;;14.40;10.50;;;16.70;41.30;;;;;;5053105;28;20036;-73
2022/03/13 09:34:26;;;;;;;15.68;9.93;;;17.20;42.20;;;;;;5054193;28;20387;-73
2022/03/13 09:36:52;;;;;;;14.75;10.73;;;17.10;41.40;;;;;;5054162;28;20064;-73
2022/03/13 09:39:17;;;;;;;15.38;10.85;;;17.50;41.10;;;;;;5054128;28;20056;-73
2022/03/13 09:41:43;;;;;;;17.40;11.18;;;17.40;40.70;;;;;;5036159;28;20108;-73
2022/03/13 09:44:09;;;;;;;15.52;10.65;;;17.50;40.20;;;;;;5053949;28;20036;-73
2022/03/13 09:46:36;;;;;;;13.63;10.57;;;16.90;40.70;;;;;;5053945;28;20025;-73
2022/03/13 09:49:03;;;;;;;15.57;10.63;;;17.40;41.40;;;;;;5052364;28;20055;-73
2022/03/13 09:51:28;;;;;;;13.68;10.90;;;17.70;40.70;;;;;;5052565;28;20017;-73
2022/03/13 09:53:54;;;;;;;17.90;10.90;;;17.90;39.90;;;;;;5053693;28;20028;-73
2022/03/13 09:56:19;;;;;;;16.90;11.73;;;17.80;40.70;;;;;;5053627;28;20384;-73
2022/03/13 09:58:45;;;;;;;15.88;11.75;;;17.80;41.00;;;;;;5053213;28;20033;-74
2022/03/13 10:01:12;;;;;;;20.35;11.57;;;18.10;40.30;;;;;;5052369;28;20474;-73
2022/03/13 10:03:39;;;;;;;18.23;11.73;;;18.00;40.00;;;;;;5052584;28;20025;-73
2022/03/13 10:06:05;;;;;;;17.77;11.68;;;17.20;40.60;;;;;;5053673;28;20059;-73
2022/03/13 10:08:32;;;;;;;16.20;11.82;;;17.10;42.10;;;;;;5052251;28;20021;-73
2022/03/13 10:10:59;;;;;;;14.45;11.27;;;17.00;42.10;;;;;;5053653;28;20398;-73
2022/03/13 10:13:36;;;;;;;17.92;12.15;;;17.20;42.40;;;;;;5053537;28;20029;-73
2022/03/13 10:16:02;;;;;;;19.00;11.63;;;17.10;42.50;;;;;;5035513;28;20097;-74
2022/03/13 10:18:28;;;;;;;16.92;12.75;;;17.60;41.60;;;;;;5052553;28;20474;-73
2022/03/13 10:20:55;;;;;;;18.67;13.23;;;17.50;41.10;;;;;;5053372;28;20092;-73
2022/03/13 10:23:22;;;;;;;21.40;12.65;;;17.00;41.70;;;;;;5052060;28;20025;-73
2022/03/13 10:25:51;;;;;;;17.13;12.60;;;16.90;43.10;;;;;;5053317;28;20029;-73
2022/03/13 10:28:19;;;;;;;17.45;12.10;;;18.00;42.40;;;;;;5053541;28;20420;-73
2022/03/13 10:30:48;;;;;;;21.08;13.20;;;18.50;41.40;;;;;;5053286;28;20082;-73
2022/03/13 10:33:13;;;;;;;18.20;13.27;;;18.40;41.20;;;;;;5053212;28;20021;-73
2022/03/13 10:35:40;;;;;;;18.63;13.68;;;18.10;42.10;;;;;;5051939;28;20088;-73
2022/03/13 10:38:23;;;;;;;19.05;13.90;;;18.00;41.40;;;;;;5053205;28;20578;-73
2022/03/13 10:40:56;;;;;;;20.55;14.13;;;18.20;41.90;;;;;;5051877;28;20055;-73
2022/03/13 10:43:26;;;;;;;22.70;15.23;;;17.90;41.70;;;;;;5053026;28;20108;-73
2022/03/13 10:45:54;;;;;;;20.88;14.75;;;17.60;42.20;;;;;;5051922;28;20060;-73
2022/03/13 10:48:29;;;;;;;19.77;14.38;;;17.90;42.80;;;;;;5052826;28;20124;-73
2022/03/13 10:50:57;;;;;;;21.35;14.73;;;18.50;43.50;;;;;;5051921;28;20375;-73
2022/03/13 10:53:23;;;;;;;19.00;14.73;;;19.00;41.70;;;;;;5051727;28;20053;-73
2022/03/13 10:56:10;;;;;;;21.55;15.32;;;18.80;42.10;;;;;;5051719;28;20061;-73
2022/03/13 10:58:39;;;;;;;20.65;15.43;;;18.80;42.30;;;;;;5052959;28;20045;-73
2022/03/13 11:01:10;;;;;;;21.52;14.68;;;19.10;42.10;;;;;;5051705;28;20065;-73
2022/03/13 11:03:51;;;;;;;21.15;14.73;;;18.90;41.60;;;;;;5051659;28;20029;-73
2022/03/13 11:06:17;;;;;;;23.52;15.52;;;18.80;42.10;;;;;;5051824;28;20089;-73
2022/03/13 11:08:43;;;;;;;24.38;16.23;;;18.80;42.60;;;;;;5052777;28;20029;-73
2022/03/13 11:11:09;;;;;;;22.10;15.40;;;19.00;42.60;;;;;;5056583;28;20021;-73
2022/03/13 11:13:40;;;;;;;19.83;15.02;;;19.30;43.80;;;;;;5056811;28;20439;-73
2022/03/13 11:16:09;;;;;;;21.77;16.38;;;19.20;42.10;;;;;;5039343;28;20036;-73
2022/03/13 11:18:36;;;;;;;20.58;14.93;;;19.00;43.40;;;;;;5055867;28;20032;-73
2022/03/13 11:21:06;;;;;;;22.08;15.88;;;19.20;42.80;;;;;;5055479;28;20025;-73
2022/03/13 11:23:33;;;;;;;23.02;16.20;;;19.10;43.40;;;;;;5055486;28;20131;-73
2022/03/13 11:25:59;;;;;;;22.95;15.25;;;19.40;42.70;;;;;;5056701;28;20017;-73
2022/03/13 11:28:28;;;;;;;25.75;16.17;;;19.50;42.30;;;;;;5056462;28;20430;-73
2022/03/13 11:30:54;;;;;;;24.40;16.08;;;19.30;43.20;;;;;;5056547;28;20027;-73
2022/03/13 11:33:44;;;;;;;21.50;15.55;;;18.90;43.80;;;;;;5056493;28;20510;-73
2022/03/13 11:36:30;;;;;;;23.35;15.32;;;18.70;43.50;;;;;;5056399;28;20099;-73
2022/03/13 11:38:59;;;;;;;23.85;16.40;;;19.10;44.20;;;;;;5056368;28;20017;-73
2022/03/13 11:41:46;;;;;;;23.08;15.85;;;19.10;43.00;;;;;;5056305;28;20017;-72
2022/03/13 11:46:57;;;;;;;24.23;17.00;;;19.00;43.10;;;;;;5090774;27;20413;-73
2022/03/13 11:57:39;;;;;;;25.42;16.63;;;18.30;44.90;;;;;;5111189;27;20405;-73
2022/03/13 12:02:49;;;;;;;25.25;17.45;;;18.10;45.70;;;;;;5070614;28;20357;-72
2022/03/13 12:05:30;;;;;;;25.45;16.60;;;18.40;46.10;;;;;;5070664;28;20079;-72
2022/03/13 12:08:05;;;;;;;25.20;16.73;;;18.60;45.90;;;;;;5070540;28;20425;-73
2022/03/13 12:10:41;;;;;;;24.05;17.20;;;18.60;45.40;;;;;;5069307;28;20020;-72
2022/03/13 12:13:09;;;;;;;24.90;16.52;;;18.50;46.00;;;;;;5069181;28;20052;-72
2022/03/13 12:15:35;;;;;;;28.48;17.13;;;18.60;46.40;;;;;;5052535;28;20029;-72
2022/03/13 12:18:29;;;;;;;24.02;17.10;;;17.90;48.40;;;;;;5069145;28;20098;-73
2022/03/13 12:21:05;;;;;;;25.20;17.25;;;17.70;49.00;;;;;;5068867;28;20497;-73
2022/03/13 12:23:33;;;;;;;22.02;15.93;;;18.10;48.80;;;;;;5070268;28;20020;-73
2022/03/13 12:26:20;;;;;;;22.63;16.27;;;18.50;48.40;;;;;;5070006;28;20021;-73
2022/03/13 12:28:47;;;;;;;24.90;17.25;;;18.70;48.00;;;;;;5069942;28;20025;-73
2022/03/13 12:31:13;;;;;;;23.50;17.15;;;18.70;46.50;;;;;;5070053;28;20028;-73
2022/03/13 12:33:44;;;;;;;24.67;16.35;;;18.70;47.30;;;;;;5070010;28;20483;-73
2022/03/13 12:36:09;;;;;;;24.40;16.55;;;18.50;47.10;;;;;;5069765;28;20029;-73
2022/03/13 12:38:35;;;;;;;24.08;15.13;;;18.70;47.10;;;;;;5069922;28;20032;-73
2022/03/13 12:41:05;;;;;;;22.95;15.65;;;18.80;49.10;;;;;;5069769;28;20024;-73
2022/03/13 12:43:53;;;;;;;25.30;17.00;;;18.80;48.00;;;;;;5068597;28;20028;-73
2022/03/13 12:46:22;;;;;;;26.05;16.48;;;18.50;46.80;;;;;;5069546;28;20021;-73
2022/03/13 12:49:05;;;;;;;26.92;17.42;;;18.30;46.70;;;;;;5068365;28;20032;-73
2022/03/13 12:51:49;;;;;;;30.88;17.15;;;18.30;47.50;;;;;;5068397;28;20040;-73
2022/03/13 12:54:25;;;;;;;24.10;16.88;;;18.20;47.10;;;;;;5069397;28;20025;-73